sensor_id;sensor_type;location;lat;lon;timestamp;temperature;humidity
44166;DHT22;30476;53.468;9.826;2022-12-15T00:02:30;-3.30;98.00
44166;DHT22;30476;53.468;9.826;2022-12-15T00:05:15;-3.30;98.00
44166;DHT22;30476;53.468;9.826;2022-12-15T00:08:08;-3.20;98.00
44166;DHT22;30476;53.468;9.826;2022-12-15T00:10:53;-3.20;98.00
44166;DHT22;30476;53.468;9.826;2022-12-15T00:13:37;-3.30;98.00
44166;DHT22;30476;53.468;9.826;2022-12-15T00:16:22;-3.20;98.00
44166;DHT22;30476;53.468;9.826;2022-12-15T00:19:07;-3.20;97.90
44166;DHT22;30476;53.468;9.826;2022-12-15T00:21:51;-3.20;97.90
44166;DHT22;30476;53.468;9.826;2022-12-15T00:24:36;-3.20;97.90
44166;DHT22;30476;53.468;9.826;2022-12-15T00:27:20;-3.20;97.80
44166;DHT22;30476;53.468;9.826;2022-12-15T00:30:06;-3.20;97.90
44166;DHT22;30476;53.468;9.826;2022-12-15T00:32:50;-3.20;97.80
44166;DHT22;30476;53.468;9.826;2022-12-15T00:35:35;-3.20;97.70
44166;DHT22;30476;53.468;9.826;2022-12-15T00:38:19;-3.20;97.60
44166;DHT22;30476;53.468;9.826;2022-12-15T00:41:04;-3.20;97.60
44166;DHT22;30476;53.468;9.826;2022-12-15T00:43:31;-3.10;97.70
44166;DHT22;30476;53.468;9.826;2022-12-15T00:45:58;-3.20;97.50
44166;DHT22;30476;53.468;9.826;2022-12-15T00:48:43;-3.10;97.60
44166;DHT22;30476;53.468;9.826;2022-12-15T00:51:09;-3.10;97.50
44166;DHT22;30476;53.468;9.826;2022-12-15T00:53:35;-3.00;97.50
44166;DHT22;30476;53.468;9.826;2022-12-15T00:56:20;-3.00;97.50
44166;DHT22;30476;53.468;9.826;2022-12-15T00:59:04;-2.90;97.50
44166;DHT22;30476;53.468;9.826;2022-12-15T01:01:49;-2.90;97.40
44166;DHT22;30476;53.468;9.826;2022-12-15T01:04:33;-2.90;97.50
44166;DHT22;30476;53.468;9.826;2022-12-15T01:07:18;-2.90;97.50
44166;DHT22;30476;53.468;9.826;2022-12-15T01:10:03;-2.90;97.50
44166;DHT22;30476;53.468;9.826;2022-12-15T01:12:47;-2.90;97.50
44166;DHT22;30476;53.468;9.826;2022-12-15T01:15:35;-2.90;97.50
44166;DHT22;30476;53.468;9.826;2022-12-15T01:18:20;-2.80;97.10
44166;DHT22;30476;53.468;9.826;2022-12-15T01:21:06;-2.80;97.30
44166;DHT22;30476;53.468;9.826;2022-12-15T01:23:33;-2.80;97.20
44166;DHT22;30476;53.468;9.826;2022-12-15T01:26:00;-2.90;97.10
44166;DHT22;30476;53.468;9.826;2022-12-15T01:28:26;-2.80;97.20
44166;DHT22;30476;53.468;9.826;2022-12-15T01:30:52;-2.80;97.10
44166;DHT22;30476;53.468;9.826;2022-12-15T01:33:19;-2.80;97.00
44166;DHT22;30476;53.468;9.826;2022-12-15T01:35:55;-2.80;97.00
44166;DHT22;30476;53.468;9.826;2022-12-15T01:38:21;-2.90;97.00
44166;DHT22;30476;53.468;9.826;2022-12-15T01:40:54;-2.80;97.00
44166;DHT22;30476;53.468;9.826;2022-12-15T01:43:25;-2.90;96.90
44166;DHT22;30476;53.468;9.826;2022-12-15T01:46:18;-2.90;96.90
44166;DHT22;30476;53.468;9.826;2022-12-15T01:49:02;-2.90;96.90
44166;DHT22;30476;53.468;9.826;2022-12-15T01:51:42;-2.90;96.90
44166;DHT22;30476;53.468;9.826;2022-12-15T01:54:18;-2.90;96.90
44166;DHT22;30476;53.468;9.826;2022-12-15T01:56:48;-2.90;96.90
44166;DHT22;30476;53.468;9.826;2022-12-15T01:59:20;-2.90;96.90
44166;DHT22;30476;53.468;9.826;2022-12-15T02:01:47;-2.90;96.90
44166;DHT22;30476;53.468;9.826;2022-12-15T02:04:14;-3.00;96.80
44166;DHT22;30476;53.468;9.826;2022-12-15T02:06:40;-2.90;96.80
44166;DHT22;30476;53.468;9.826;2022-12-15T02:09:07;-2.90;96.90
44166;DHT22;30476;53.468;9.826;2022-12-15T02:12:11;-3.00;96.80
44166;DHT22;30476;53.468;9.826;2022-12-15T02:15:03;-2.90;97.00
44166;DHT22;30476;53.468;9.826;2022-12-15T02:20:47;-3.00;97.10
44166;DHT22;30476;53.468;9.826;2022-12-15T02:26:22;-3.00;97.10
44166;DHT22;30476;53.468;9.826;2022-12-15T02:29:09;-3.00;97.00
44166;DHT22;30476;53.468;9.826;2022-12-15T02:31:40;-3.00;97.00
44166;DHT22;30476;53.468;9.826;2022-12-15T02:34:42;-3.00;97.00
44166;DHT22;30476;53.468;9.826;2022-12-15T02:37:16;-3.00;97.10
44166;DHT22;30476;53.468;9.826;2022-12-15T02:39:42;-3.00;97.00
44166;DHT22;30476;53.468;9.826;2022-12-15T02:42:10;-3.00;97.00
44166;DHT22;30476;53.468;9.826;2022-12-15T02:44:47;-3.00;97.10
44166;DHT22;30476;53.468;9.826;2022-12-15T02:47:21;-3.10;97.40
44166;DHT22;30476;53.468;9.826;2022-12-15T03:01:00;-3.00;97.50
44166;DHT22;30476;53.468;9.826;2022-12-15T03:03:29;-3.00;97.60
44166;DHT22;30476;53.468;9.826;2022-12-15T03:05:56;-3.00;97.70
44166;DHT22;30476;53.468;9.826;2022-12-15T03:08:22;-3.00;97.70
44166;DHT22;30476;53.468;9.826;2022-12-15T03:10:52;-3.00;97.80
44166;DHT22;30476;53.468;9.826;2022-12-15T03:13:19;-3.00;97.80
44166;DHT22;30476;53.468;9.826;2022-12-15T03:15:45;-3.00;98.10
44166;DHT22;30476;53.468;9.826;2022-12-15T03:18:11;-3.00;97.80
44166;DHT22;30476;53.468;9.826;2022-12-15T03:20:37;-3.00;97.80
44166;DHT22;30476;53.468;9.826;2022-12-15T03:23:03;-3.00;97.80
44166;DHT22;30476;53.468;9.826;2022-12-15T03:25:29;-3.00;97.80
44166;DHT22;30476;53.468;9.826;2022-12-15T03:27:55;-3.00;97.70
44166;DHT22;30476;53.468;9.826;2022-12-15T03:30:21;-3.00;97.80
44166;DHT22;30476;53.468;9.826;2022-12-15T03:32:47;-3.00;97.80
44166;DHT22;30476;53.468;9.826;2022-12-15T03:35:13;-3.00;97.80
44166;DHT22;30476;53.468;9.826;2022-12-15T03:37:39;-3.10;97.80
44166;DHT22;30476;53.468;9.826;2022-12-15T03:40:06;-3.10;97.80
44166;DHT22;30476;53.468;9.826;2022-12-15T03:42:31;-3.10;97.90
44166;DHT22;30476;53.468;9.826;2022-12-15T03:45:18;-3.10;98.00
44166;DHT22;30476;53.468;9.826;2022-12-15T03:47:45;-3.00;98.10
44166;DHT22;30476;53.468;9.826;2022-12-15T03:50:12;-3.10;98.20
44166;DHT22;30476;53.468;9.826;2022-12-15T03:52:38;-3.00;98.30
44166;DHT22;30476;53.468;9.826;2022-12-15T03:55:05;-3.10;98.40
44166;DHT22;30476;53.468;9.826;2022-12-15T03:57:32;-3.10;98.40
44166;DHT22;30476;53.468;9.826;2022-12-15T03:59:58;-3.10;98.60
44166;DHT22;30476;53.468;9.826;2022-12-15T04:02:24;-3.10;98.70
44166;DHT22;30476;53.468;9.826;2022-12-15T04:04:50;-3.00;98.80
44166;DHT22;30476;53.468;9.826;2022-12-15T04:07:15;-3.10;98.70
44166;DHT22;30476;53.468;9.826;2022-12-15T04:09:41;-3.10;98.90
44166;DHT22;30476;53.468;9.826;2022-12-15T04:12:10;-3.10;98.90
44166;DHT22;30476;53.468;9.826;2022-12-15T04:14:35;-3.00;98.90
44166;DHT22;30476;53.468;9.826;2022-12-15T04:17:10;-3.00;98.80
44166;DHT22;30476;53.468;9.826;2022-12-15T04:19:37;-3.00;98.80
44166;DHT22;30476;53.468;9.826;2022-12-15T04:22:22;-3.00;98.70
44166;DHT22;30476;53.468;9.826;2022-12-15T04:24:48;-3.10;98.70
44166;DHT22;30476;53.468;9.826;2022-12-15T04:27:32;-3.00;99.00
44166;DHT22;30476;53.468;9.826;2022-12-15T04:30:17;-3.00;98.80
44166;DHT22;30476;53.468;9.826;2022-12-15T04:33:02;-3.10;98.70
44166;DHT22;30476;53.468;9.826;2022-12-15T04:35:47;-3.10;98.60
44166;DHT22;30476;53.468;9.826;2022-12-15T04:38:33;-3.10;98.60
44166;DHT22;30476;53.468;9.826;2022-12-15T04:41:18;-3.10;98.70
44166;DHT22;30476;53.468;9.826;2022-12-15T04:44:04;-3.20;98.60
44166;DHT22;30476;53.468;9.826;2022-12-15T04:46:49;-3.20;98.60
44166;DHT22;30476;53.468;9.826;2022-12-15T04:49:34;-3.20;98.80
44166;DHT22;30476;53.468;9.826;2022-12-15T04:52:18;-3.20;98.80
44166;DHT22;30476;53.468;9.826;2022-12-15T04:55:04;-3.30;98.80
44166;DHT22;30476;53.468;9.826;2022-12-15T04:57:48;-3.30;99.00
44166;DHT22;30476;53.468;9.826;2022-12-15T05:00:33;-3.30;99.10
44166;DHT22;30476;53.468;9.826;2022-12-15T05:03:17;-3.30;99.10
44166;DHT22;30476;53.468;9.826;2022-12-15T05:06:02;-3.20;99.30
44166;DHT22;30476;53.468;9.826;2022-12-15T05:08:47;-3.20;99.20
44166;DHT22;30476;53.468;9.826;2022-12-15T05:11:31;-3.20;99.20
44166;DHT22;30476;53.468;9.826;2022-12-15T05:14:16;-3.20;99.20
44166;DHT22;30476;53.468;9.826;2022-12-15T05:17:01;-3.20;99.20
44166;DHT22;30476;53.468;9.826;2022-12-15T05:19:45;-3.20;99.30
44166;DHT22;30476;53.468;9.826;2022-12-15T05:22:30;-3.30;99.30
44166;DHT22;30476;53.468;9.826;2022-12-15T05:25:15;-3.20;99.50
44166;DHT22;30476;53.468;9.826;2022-12-15T05:27:59;-3.20;99.60
44166;DHT22;30476;53.468;9.826;2022-12-15T05:30:44;-3.20;99.80
44166;DHT22;30476;53.468;9.826;2022-12-15T05:33:28;-3.20;99.70
44166;DHT22;30476;53.468;9.826;2022-12-15T05:35:57;-3.20;99.80
44166;DHT22;30476;53.468;9.826;2022-12-15T05:38:23;-3.20;99.60
44166;DHT22;30476;53.468;9.826;2022-12-15T05:40:49;-3.20;99.70
44166;DHT22;30476;53.468;9.826;2022-12-15T05:43:15;-3.20;99.70
44166;DHT22;30476;53.468;9.826;2022-12-15T05:45:40;-3.00;99.90
44166;DHT22;30476;53.468;9.826;2022-12-15T05:48:06;-3.10;99.70
44166;DHT22;30476;53.468;9.826;2022-12-15T05:50:32;-3.20;99.80
44166;DHT22;30476;53.468;9.826;2022-12-15T05:52:58;-3.10;99.90
44166;DHT22;30476;53.468;9.826;2022-12-15T05:55:24;-3.10;99.80
44166;DHT22;30476;53.468;9.826;2022-12-15T05:57:51;-3.10;99.70
44166;DHT22;30476;53.468;9.826;2022-12-15T06:00:17;-3.10;99.70
44166;DHT22;30476;53.468;9.826;2022-12-15T06:02:43;-3.10;99.60
44166;DHT22;30476;53.468;9.826;2022-12-15T06:05:09;-3.10;99.90
44166;DHT22;30476;53.468;9.826;2022-12-15T06:07:35;-3.10;99.70
44166;DHT22;30476;53.468;9.826;2022-12-15T06:10:02;-3.10;99.70
44166;DHT22;30476;53.468;9.826;2022-12-15T06:12:28;-3.20;99.80
44166;DHT22;30476;53.468;9.826;2022-12-15T06:14:54;-3.20;99.90
44166;DHT22;30476;53.468;9.826;2022-12-15T06:17:20;-3.20;99.90
44166;DHT22;30476;53.468;9.826;2022-12-15T06:19:46;-3.30;99.90
44166;DHT22;30476;53.468;9.826;2022-12-15T06:22:11;-3.30;99.90
44166;DHT22;30476;53.468;9.826;2022-12-15T06:24:37;-3.20;99.90
44166;DHT22;30476;53.468;9.826;2022-12-15T06:27:03;-3.20;99.90
44166;DHT22;30476;53.468;9.826;2022-12-15T06:29:29;-3.20;99.90
44166;DHT22;30476;53.468;9.826;2022-12-15T06:31:55;-3.20;99.90
44166;DHT22;30476;53.468;9.826;2022-12-15T06:34:20;-3.20;99.90
44166;DHT22;30476;53.468;9.826;2022-12-15T06:36:46;-3.30;99.90
44166;DHT22;30476;53.468;9.826;2022-12-15T06:39:13;-3.20;99.90
44166;DHT22;30476;53.468;9.826;2022-12-15T06:41:40;-3.20;99.90
44166;DHT22;30476;53.468;9.826;2022-12-15T06:44:07;-3.20;99.90
44166;DHT22;30476;53.468;9.826;2022-12-15T06:46:35;-3.10;99.90
44166;DHT22;30476;53.468;9.826;2022-12-15T06:49:01;-3.10;99.90
44166;DHT22;30476;53.468;9.826;2022-12-15T06:51:27;-3.20;99.90
44166;DHT22;30476;53.468;9.826;2022-12-15T06:53:53;-3.20;99.90
44166;DHT22;30476;53.468;9.826;2022-12-15T06:56:28;-3.20;99.90
44166;DHT22;30476;53.468;9.826;2022-12-15T06:58:54;-3.20;99.90
44166;DHT22;30476;53.468;9.826;2022-12-15T07:01:22;-3.20;99.90
44166;DHT22;30476;53.468;9.826;2022-12-15T07:03:48;-3.20;99.90
44166;DHT22;30476;53.468;9.826;2022-12-15T07:06:15;-3.20;99.90
44166;DHT22;30476;53.468;9.826;2022-12-15T07:08:42;-3.20;99.90
44166;DHT22;30476;53.468;9.826;2022-12-15T07:11:10;-3.10;99.90
44166;DHT22;30476;53.468;9.826;2022-12-15T07:13:37;-3.10;99.90
44166;DHT22;30476;53.468;9.826;2022-12-15T07:16:05;-3.00;99.90
44166;DHT22;30476;53.468;9.826;2022-12-15T07:18:31;-3.10;99.90
44166;DHT22;30476;53.468;9.826;2022-12-15T07:21:08;-3.10;99.90
44166;DHT22;30476;53.468;9.826;2022-12-15T07:23:34;-3.10;99.90
44166;DHT22;30476;53.468;9.826;2022-12-15T07:26:06;-3.20;99.90
44166;DHT22;30476;53.468;9.826;2022-12-15T07:28:33;-3.10;99.90
44166;DHT22;30476;53.468;9.826;2022-12-15T07:31:03;-3.10;99.90
44166;DHT22;30476;53.468;9.826;2022-12-15T07:33:31;-3.00;99.90
44166;DHT22;30476;53.468;9.826;2022-12-15T07:35:57;-3.10;99.90
44166;DHT22;30476;53.468;9.826;2022-12-15T07:38:23;-3.10;99.90
44166;DHT22;30476;53.468;9.826;2022-12-15T07:40:49;-3.00;99.90
44166;DHT22;30476;53.468;9.826;2022-12-15T07:43:14;-3.00;99.90
44166;DHT22;30476;53.468;9.826;2022-12-15T07:45:41;-3.00;99.90
44166;DHT22;30476;53.468;9.826;2022-12-15T07:48:07;-3.00;99.90
44166;DHT22;30476;53.468;9.826;2022-12-15T07:50:32;-3.00;99.90
44166;DHT22;30476;53.468;9.826;2022-12-15T07:52:58;-2.90;99.90
44166;DHT22;30476;53.468;9.826;2022-12-15T07:55:24;-2.90;99.90
44166;DHT22;30476;53.468;9.826;2022-12-15T07:57:50;-2.90;99.90
44166;DHT22;30476;53.468;9.826;2022-12-15T08:00:16;-2.90;99.90
44166;DHT22;30476;53.468;9.826;2022-12-15T08:02:42;-2.80;99.90
44166;DHT22;30476;53.468;9.826;2022-12-15T08:05:09;-2.80;99.90
44166;DHT22;30476;53.468;9.826;2022-12-15T08:07:34;-2.80;99.90
44166;DHT22;30476;53.468;9.826;2022-12-15T08:10:00;-2.80;99.90
44166;DHT22;30476;53.468;9.826;2022-12-15T08:12:27;-2.80;99.90
44166;DHT22;30476;53.468;9.826;2022-12-15T08:14:53;-2.80;99.90
44166;DHT22;30476;53.468;9.826;2022-12-15T08:17:19;-2.70;99.90
44166;DHT22;30476;53.468;9.826;2022-12-15T08:19:44;-2.80;99.90
44166;DHT22;30476;53.468;9.826;2022-12-15T08:22:10;-2.70;99.90
44166;DHT22;30476;53.468;9.826;2022-12-15T08:24:36;-2.70;99.90
44166;DHT22;30476;53.468;9.826;2022-12-15T08:27:02;-2.60;99.90
44166;DHT22;30476;53.468;9.826;2022-12-15T08:29:28;-2.60;99.90
44166;DHT22;30476;53.468;9.826;2022-12-15T08:31:54;-2.50;99.90
44166;DHT22;30476;53.468;9.826;2022-12-15T08:34:20;-2.50;99.90
44166;DHT22;30476;53.468;9.826;2022-12-15T08:36:45;-2.50;99.90
44166;DHT22;30476;53.468;9.826;2022-12-15T08:39:11;-2.50;99.90
44166;DHT22;30476;53.468;9.826;2022-12-15T08:41:37;-2.40;99.90
44166;DHT22;30476;53.468;9.826;2022-12-15T08:44:03;-2.40;99.90
44166;DHT22;30476;53.468;9.826;2022-12-15T08:46:31;-2.40;99.90
44166;DHT22;30476;53.468;9.826;2022-12-15T08:48:58;-2.30;99.90
44166;DHT22;30476;53.468;9.826;2022-12-15T08:51:27;-2.20;99.90
44166;DHT22;30476;53.468;9.826;2022-12-15T08:53:57;-2.20;99.90
44166;DHT22;30476;53.468;9.826;2022-12-15T08:56:24;-2.10;99.90
44166;DHT22;30476;53.468;9.826;2022-12-15T08:58:55;-2.10;99.90
44166;DHT22;30476;53.468;9.826;2022-12-15T09:01:23;-2.10;99.90
44166;DHT22;30476;53.468;9.826;2022-12-15T09:03:50;-1.90;99.90
44166;DHT22;30476;53.468;9.826;2022-12-15T09:06:19;-1.90;99.90
44166;DHT22;30476;53.468;9.826;2022-12-15T09:08:46;-1.80;99.90
44166;DHT22;30476;53.468;9.826;2022-12-15T09:11:12;-1.70;99.90
44166;DHT22;30476;53.468;9.826;2022-12-15T09:13:38;-1.60;99.90
44166;DHT22;30476;53.468;9.826;2022-12-15T09:16:08;-1.60;99.90
44166;DHT22;30476;53.468;9.826;2022-12-15T09:18:38;-1.50;99.90
44166;DHT22;30476;53.468;9.826;2022-12-15T09:21:06;-1.50;99.90
44166;DHT22;30476;53.468;9.826;2022-12-15T09:23:33;-1.40;99.90
44166;DHT22;30476;53.468;9.826;2022-12-15T09:26:04;-1.40;99.90
44166;DHT22;30476;53.468;9.826;2022-12-15T09:28:31;-1.30;99.90
44166;DHT22;30476;53.468;9.826;2022-12-15T09:33:28;-1.20;99.90
44166;DHT22;30476;53.468;9.826;2022-12-15T09:35:54;-1.10;99.90
44166;DHT22;30476;53.468;9.826;2022-12-15T09:38:20;-1.10;99.90
44166;DHT22;30476;53.468;9.826;2022-12-15T09:40:47;-1.10;99.90
44166;DHT22;30476;53.468;9.826;2022-12-15T09:43:17;-1.00;99.90
44166;DHT22;30476;53.468;9.826;2022-12-15T09:45:48;-0.90;99.90
44166;DHT22;30476;53.468;9.826;2022-12-15T09:48:20;-0.90;99.90
44166;DHT22;30476;53.468;9.826;2022-12-15T09:50:50;-0.90;99.90
44166;DHT22;30476;53.468;9.826;2022-12-15T09:53:17;-0.90;99.90
44166;DHT22;30476;53.468;9.826;2022-12-15T09:55:59;-0.80;99.90
44166;DHT22;30476;53.468;9.826;2022-12-15T09:58:50;-0.70;99.90
44166;DHT22;30476;53.468;9.826;2022-12-15T10:01:30;-0.70;99.90
44166;DHT22;30476;53.468;9.826;2022-12-15T10:04:41;-0.70;99.90
44166;DHT22;30476;53.468;9.826;2022-12-15T10:07:27;-0.70;99.90
44166;DHT22;30476;53.468;9.826;2022-12-15T10:09:54;-0.60;99.90
44166;DHT22;30476;53.468;9.826;2022-12-15T10:12:27;-0.60;99.90
44166;DHT22;30476;53.468;9.826;2022-12-15T10:17:48;-0.60;99.90
44166;DHT22;30476;53.468;9.826;2022-12-15T10:20:25;-0.50;99.90
44166;DHT22;30476;53.468;9.826;2022-12-15T10:22:52;-0.60;99.90
44166;DHT22;30476;53.468;9.826;2022-12-15T10:25:25;-0.50;99.90
44166;DHT22;30476;53.468;9.826;2022-12-15T10:27:54;-0.40;99.90
44166;DHT22;30476;53.468;9.826;2022-12-15T10:30:23;-0.40;99.90
44166;DHT22;30476;53.468;9.826;2022-12-15T10:33:17;-0.40;99.90
44166;DHT22;30476;53.468;9.826;2022-12-15T10:35:45;-0.30;99.90
44166;DHT22;30476;53.468;9.826;2022-12-15T10:38:26;-0.30;99.90
44166;DHT22;30476;53.468;9.826;2022-12-15T10:40:58;-0.20;99.90
44166;DHT22;30476;53.468;9.826;2022-12-15T10:43:40;-0.20;99.90
44166;DHT22;30476;53.468;9.826;2022-12-15T10:46:13;-0.20;99.90
44166;DHT22;30476;53.468;9.826;2022-12-15T10:49:29;-0.10;99.90
44166;DHT22;30476;53.468;9.826;2022-12-15T10:51:42;-0.10;99.90
44166;DHT22;30476;53.468;9.826;2022-12-15T10:54:12;0.00;99.90
44166;DHT22;30476;53.468;9.826;2022-12-15T10:56:51;0.00;99.90
44166;DHT22;30476;53.468;9.826;2022-12-15T10:59:34;0.00;99.90
44166;DHT22;30476;53.468;9.826;2022-12-15T11:05:04;0.20;99.90
44166;DHT22;30476;53.468;9.826;2022-12-15T11:07:39;0.20;99.90
44166;DHT22;30476;53.468;9.826;2022-12-15T11:12:43;0.30;99.90
44166;DHT22;30476;53.468;9.826;2022-12-15T11:17:55;0.40;99.90
44166;DHT22;30476;53.468;9.826;2022-12-15T11:20:27;0.50;99.90
44166;DHT22;30476;53.468;9.826;2022-12-15T11:22:59;0.50;99.90
44166;DHT22;30476;53.468;9.826;2022-12-15T11:25:34;0.60;99.90
44166;DHT22;30476;53.468;9.826;2022-12-15T11:28:07;0.60;99.90
44166;DHT22;30476;53.468;9.826;2022-12-15T11:30:56;0.60;99.90
44166;DHT22;30476;53.468;9.826;2022-12-15T11:33:24;0.70;99.90
44166;DHT22;30476;53.468;9.826;2022-12-15T11:36:03;0.70;99.90
44166;DHT22;30476;53.468;9.826;2022-12-15T11:38:43;0.70;99.90
44166;DHT22;30476;53.468;9.826;2022-12-15T11:41:33;0.80;99.90
44166;DHT22;30476;53.468;9.826;2022-12-15T11:44:10;0.80;99.90
44166;DHT22;30476;53.468;9.826;2022-12-15T11:50:00;0.90;99.90
44166;DHT22;30476;53.468;9.826;2022-12-15T11:52:45;0.90;99.90
44166;DHT22;30476;53.468;9.826;2022-12-15T12:01:23;1.20;99.90
44166;DHT22;30476;53.468;9.826;2022-12-15T12:04:08;1.30;99.90
44166;DHT22;30476;53.468;9.826;2022-12-15T12:12:19;1.80;99.90
44166;DHT22;30476;53.468;9.826;2022-12-15T12:15:11;1.90;99.90
44166;DHT22;30476;53.468;9.826;2022-12-15T12:17:49;2.20;99.90
44166;DHT22;30476;53.468;9.826;2022-12-15T12:23:35;2.40;99.90
44166;DHT22;30476;53.468;9.826;2022-12-15T12:26:06;2.40;99.90
44166;DHT22;30476;53.468;9.826;2022-12-15T12:29:03;2.30;99.90
44166;DHT22;30476;53.468;9.826;2022-12-15T12:32:01;2.30;99.90
44166;DHT22;30476;53.468;9.826;2022-12-15T12:34:37;2.30;99.90
44166;DHT22;30476;53.468;9.826;2022-12-15T12:39:42;2.30;99.90
44166;DHT22;30476;53.468;9.826;2022-12-15T12:42:41;2.30;99.90
44166;DHT22;30476;53.468;9.826;2022-12-15T12:45:13;2.30;99.90
44166;DHT22;30476;53.468;9.826;2022-12-15T12:47:43;2.30;99.90
44166;DHT22;30476;53.468;9.826;2022-12-15T12:50:17;2.30;99.90
44166;DHT22;30476;53.468;9.826;2022-12-15T12:52:50;2.30;99.80
44166;DHT22;30476;53.468;9.826;2022-12-15T12:55:42;2.30;99.80
44166;DHT22;30476;53.468;9.826;2022-12-15T12:58:31;2.30;99.90
44166;DHT22;30476;53.468;9.826;2022-12-15T13:03:38;2.40;99.90
44166;DHT22;30476;53.468;9.826;2022-12-15T13:17:28;2.40;99.90
44166;DHT22;30476;53.468;9.826;2022-12-15T13:22:37;2.40;99.90
44166;DHT22;30476;53.468;9.826;2022-12-15T13:25:32;2.40;99.90
44166;DHT22;30476;53.468;9.826;2022-12-15T13:28:00;2.40;99.90
44166;DHT22;30476;53.468;9.826;2022-12-15T13:30:27;2.40;99.90
44166;DHT22;30476;53.468;9.826;2022-12-15T13:32:55;2.40;99.90
44166;DHT22;30476;53.468;9.826;2022-12-15T13:35:39;2.40;99.90
44166;DHT22;30476;53.468;9.826;2022-12-15T13:38:16;2.40;99.90
44166;DHT22;30476;53.468;9.826;2022-12-15T13:45:55;2.40;99.90
44166;DHT22;30476;53.468;9.826;2022-12-15T13:48:26;2.40;99.90
44166;DHT22;30476;53.468;9.826;2022-12-15T13:53:23;2.40;99.90
44166;DHT22;30476;53.468;9.826;2022-12-15T13:58:49;2.50;99.90
44166;DHT22;30476;53.468;9.826;2022-12-15T14:01:24;2.50;99.90
44166;DHT22;30476;53.468;9.826;2022-12-15T14:04:09;2.50;99.90
44166;DHT22;30476;53.468;9.826;2022-12-15T14:06:49;2.50;99.80
44166;DHT22;30476;53.468;9.826;2022-12-15T14:09:32;2.60;99.80
44166;DHT22;30476;53.468;9.826;2022-12-15T14:12:00;2.60;99.70
44166;DHT22;30476;53.468;9.826;2022-12-15T14:14:31;2.60;99.60
44166;DHT22;30476;53.468;9.826;2022-12-15T14:17:00;2.70;99.70
44166;DHT22;30476;53.468;9.826;2022-12-15T14:19:36;2.70;99.60
44166;DHT22;30476;53.468;9.826;2022-12-15T14:22:02;2.80;99.60
44166;DHT22;30476;53.468;9.826;2022-12-15T14:24:32;2.70;99.50
44166;DHT22;30476;53.468;9.826;2022-12-15T14:26:59;2.70;99.50
44166;DHT22;30476;53.468;9.826;2022-12-15T14:29:25;2.70;99.40
44166;DHT22;30476;53.468;9.826;2022-12-15T14:31:54;2.70;99.40
44166;DHT22;30476;53.468;9.826;2022-12-15T14:34:41;2.70;99.30
44166;DHT22;30476;53.468;9.826;2022-12-15T14:37:15;2.80;99.30
44166;DHT22;30476;53.468;9.826;2022-12-15T14:39:44;2.80;99.30
44166;DHT22;30476;53.468;9.826;2022-12-15T14:42:25;2.80;99.20
44166;DHT22;30476;53.468;9.826;2022-12-15T14:44:52;2.70;99.10
44166;DHT22;30476;53.468;9.826;2022-12-15T14:47:26;2.80;99.10
44166;DHT22;30476;53.468;9.826;2022-12-15T14:49:54;2.70;99.10
44166;DHT22;30476;53.468;9.826;2022-12-15T14:52:38;2.70;99.00
44166;DHT22;30476;53.468;9.826;2022-12-15T14:55:34;2.70;98.90
44166;DHT22;30476;53.468;9.826;2022-12-15T14:58:01;2.60;98.90
44166;DHT22;30476;53.468;9.826;2022-12-15T15:00:30;2.60;98.90
44166;DHT22;30476;53.468;9.826;2022-12-15T15:03:16;2.60;98.80
44166;DHT22;30476;53.468;9.826;2022-12-15T15:05:55;2.50;98.70
44166;DHT22;30476;53.468;9.826;2022-12-15T15:08:34;2.50;98.70
44166;DHT22;30476;53.468;9.826;2022-12-15T15:11:16;2.50;98.70
44166;DHT22;30476;53.468;9.826;2022-12-15T15:13:44;2.50;98.70
44166;DHT22;30476;53.468;9.826;2022-12-15T15:16:17;2.50;98.70
44166;DHT22;30476;53.468;9.826;2022-12-15T15:18:48;2.40;98.70
44166;DHT22;30476;53.468;9.826;2022-12-15T15:21:19;2.40;98.70
44166;DHT22;30476;53.468;9.826;2022-12-15T15:24:02;2.40;98.80
44166;DHT22;30476;53.468;9.826;2022-12-15T15:26:29;2.40;98.70
44166;DHT22;30476;53.468;9.826;2022-12-15T15:28:55;2.30;98.70
44166;DHT22;30476;53.468;9.826;2022-12-15T15:31:25;2.20;98.80
44166;DHT22;30476;53.468;9.826;2022-12-15T15:33:54;2.20;98.80
44166;DHT22;30476;53.468;9.826;2022-12-15T15:36:23;2.10;99.00
44166;DHT22;30476;53.468;9.826;2022-12-15T15:38:50;2.10;99.10
44166;DHT22;30476;53.468;9.826;2022-12-15T15:43:44;2.20;99.30
44166;DHT22;30476;53.468;9.826;2022-12-15T15:46:14;2.10;99.20
44166;DHT22;30476;53.468;9.826;2022-12-15T15:48:49;2.10;99.20
44166;DHT22;30476;53.468;9.826;2022-12-15T15:51:17;2.20;99.50
44166;DHT22;30476;53.468;9.826;2022-12-15T15:53:43;2.10;99.20
44166;DHT22;30476;53.468;9.826;2022-12-15T15:56:11;2.10;99.20
44166;DHT22;30476;53.468;9.826;2022-12-15T15:58:38;2.10;99.20
44166;DHT22;30476;53.468;9.826;2022-12-15T16:01:05;2.10;99.20
44166;DHT22;30476;53.468;9.826;2022-12-15T16:03:31;2.20;99.30
44166;DHT22;30476;53.468;9.826;2022-12-15T16:05:57;2.10;99.20
44166;DHT22;30476;53.468;9.826;2022-12-15T16:08:34;2.20;99.20
44166;DHT22;30476;53.468;9.826;2022-12-15T16:11:01;2.20;99.20
44166;DHT22;30476;53.468;9.826;2022-12-15T16:13:27;2.20;99.30
44166;DHT22;30476;53.468;9.826;2022-12-15T16:15:53;2.20;99.30
44166;DHT22;30476;53.468;9.826;2022-12-15T16:18:19;2.20;99.30
44166;DHT22;30476;53.468;9.826;2022-12-15T16:20:49;2.20;99.20
44166;DHT22;30476;53.468;9.826;2022-12-15T16:23:21;2.20;99.20
44166;DHT22;30476;53.468;9.826;2022-12-15T16:25:51;2.20;99.20
44166;DHT22;30476;53.468;9.826;2022-12-15T16:28:20;2.20;99.20
44166;DHT22;30476;53.468;9.826;2022-12-15T16:30:47;2.20;99.20
44166;DHT22;30476;53.468;9.826;2022-12-15T16:33:13;2.20;99.20
44166;DHT22;30476;53.468;9.826;2022-12-15T16:35:40;2.20;99.20
44166;DHT22;30476;53.468;9.826;2022-12-15T16:38:28;2.10;99.10
44166;DHT22;30476;53.468;9.826;2022-12-15T16:40:55;2.10;99.10
44166;DHT22;30476;53.468;9.826;2022-12-15T16:43:25;2.10;99.10
44166;DHT22;30476;53.468;9.826;2022-12-15T16:45:52;2.10;99.10
44166;DHT22;30476;53.468;9.826;2022-12-15T16:48:19;2.10;99.10
44166;DHT22;30476;53.468;9.826;2022-12-15T16:50:50;2.00;99.00
44166;DHT22;30476;53.468;9.826;2022-12-15T16:53:21;2.00;99.10
44166;DHT22;30476;53.468;9.826;2022-12-15T16:55:52;1.90;99.00
44166;DHT22;30476;53.468;9.826;2022-12-15T16:58:19;1.90;99.10
44166;DHT22;30476;53.468;9.826;2022-12-15T17:00:45;1.90;99.10
44166;DHT22;30476;53.468;9.826;2022-12-15T17:03:15;1.90;99.10
44166;DHT22;30476;53.468;9.826;2022-12-15T17:05:45;1.90;99.10
44166;DHT22;30476;53.468;9.826;2022-12-15T17:08:38;1.80;99.50
44166;DHT22;30476;53.468;9.826;2022-12-15T17:11:06;1.80;99.20
44166;DHT22;30476;53.468;9.826;2022-12-15T17:13:37;1.80;99.20
44166;DHT22;30476;53.468;9.826;2022-12-15T17:16:04;1.80;99.20
44166;DHT22;30476;53.468;9.826;2022-12-15T17:18:31;1.80;99.20
44166;DHT22;30476;53.468;9.826;2022-12-15T17:21:08;1.70;99.20
44166;DHT22;30476;53.468;9.826;2022-12-15T17:23:35;1.70;99.20
44166;DHT22;30476;53.468;9.826;2022-12-15T17:26:01;1.70;99.20
44166;DHT22;30476;53.468;9.826;2022-12-15T17:28:31;1.70;99.30
44166;DHT22;30476;53.468;9.826;2022-12-15T17:30:58;1.60;99.30
44166;DHT22;30476;53.468;9.826;2022-12-15T17:33:27;1.60;99.30